Dortmund, Germany

4:31 AM CEST on September 03, 2015 (GMT +0200)
Wetter in Obermassen | | Change Station
CLOSE
Current Station
Personal Weather Station
Location: Unna, NORDRHEIN-WESTFALEN
Elevation: 354 ft
Nearby Weather Stations

Elev 354 ft 51.53 °N, 7.66 °E | Updated 7 seconds ago

Light Rain
Light Rain
54.1 °F
Feels Like 54.1 °F
N
0.0
Wind Variable Wind from NNW
Gusts 0.0 mph

Today
High -- | Low -- °F
--% Chance of Precip.
Yesterday
High -- | Low -- °F
Precip. -- in
6:44 AM 8:12 PM
Waning Gibbous, 75% visible
Pressure 29.98 in
Visibility 5.0 miles
Clouds Few 3200 ft
Mostly Cloudy 5000 ft
Dew Point 53 °F
Humidity 97%
Rainfall 0.02 in
Snow Depth Not available.
UV 0.0 out of 12
Pollen Not available.
Air Quality Not available.
Flu Activity Not available.
METAR EDDL 030220Z 24002KT 8000 -RA FEW032 BKN050 13/12 Q1015 NOSIG
Pressure 29.98 in
Visibility 5.0 miles
Clouds Few 3200 ft
Mostly Cloudy 5000 ft
Dew Point 53 °F
Humidity 97%
Rainfall 0.02 in
Snow Depth Not available.
UV 0.0 out of 12
Pollen Not available.
Air Quality Not available.
Flu Activity Not available.
METAR EDDL 030220Z 24002KT 8000 -RA FEW032 BKN050 13/12 Q1015 NOSIG

10-Day Weather Forecast

×

Almanac

Astronomy

Sep. 03, 2015 Rise Set
Actual Time
Civil Twilight
Nautical Twilight
Astronomical Twilight
Moon
Length of Visible Light
Length of Day
Tomorrow will be .
, % of the Moon is Illuminated

Today's Extremes

Country Highs Country Lows

Community

WunderPhotos

Upload Photos

1,851,879 photos uploaded!

WunderBlogs® & News

Nearby

Air Quality

  Air Quality AQ Index Pollutant
Not available.

Snow Depth

Station Depth Elevation

Earthquake Activity

City Distance Mag. Time & Date
Minimum magnitude displayed is 2.5.

Coastal Water Temperatures

Place Temperature

Stations

Nearby Weather Stations

Station Location Temp. Windchill Dew Point Humidity Wind Precip. Elev Updated Type